sensor_id;sensor_type;location;lat;lon;timestamp;temperature;humidity
2012;DHT22;1009;51.436;6.972;2023-02-01T00:00:30;6.20;99.90
2012;DHT22;1009;51.436;6.972;2023-02-01T00:03:04;6.20;99.90
2012;DHT22;1009;51.436;6.972;2023-02-01T00:05:39;6.20;99.90
2012;DHT22;1009;51.436;6.972;2023-02-01T00:08:06;6.20;99.90
2012;DHT22;1009;51.436;6.972;2023-02-01T00:10:33;6.20;99.90
2012;DHT22;1009;51.436;6.972;2023-02-01T00:12:59;6.20;99.90
2012;DHT22;1009;51.436;6.972;2023-02-01T00:15:27;6.10;99.90
2012;DHT22;1009;51.436;6.972;2023-02-01T00:17:54;6.20;99.90
2012;DHT22;1009;51.436;6.972;2023-02-01T00:20:21;6.20;99.90
2012;DHT22;1009;51.436;6.972;2023-02-01T00:22:48;6.10;99.90
2012;DHT22;1009;51.436;6.972;2023-02-01T00:25:15;6.10;99.90
2012;DHT22;1009;51.436;6.972;2023-02-01T00:27:41;6.10;99.90
2012;DHT22;1009;51.436;6.972;2023-02-01T00:30:09;6.10;99.90
2012;DHT22;1009;51.436;6.972;2023-02-01T00:32:38;6.10;99.90
2012;DHT22;1009;51.436;6.972;2023-02-01T00:35:05;6.10;99.90
2012;DHT22;1009;51.436;6.972;2023-02-01T00:37:33;6.10;99.90
2012;DHT22;1009;51.436;6.972;2023-02-01T00:40:00;6.10;99.90
2012;DHT22;1009;51.436;6.972;2023-02-01T00:42:27;6.20;99.90
2012;DHT22;1009;51.436;6.972;2023-02-01T00:44:53;6.20;99.90
2012;DHT22;1009;51.436;6.972;2023-02-01T00:47:20;6.10;99.90
2012;DHT22;1009;51.436;6.972;2023-02-01T00:49:48;6.10;99.90
2012;DHT22;1009;51.436;6.972;2023-02-01T00:52:15;6.10;99.90
2012;DHT22;1009;51.436;6.972;2023-02-01T00:54:41;6.10;99.90
2012;DHT22;1009;51.436;6.972;2023-02-01T00:57:08;6.10;99.90
2012;DHT22;1009;51.436;6.972;2023-02-01T00:59:35;6.20;99.90
2012;DHT22;1009;51.436;6.972;2023-02-01T01:02:01;6.10;99.90
2012;DHT22;1009;51.436;6.972;2023-02-01T01:04:28;6.10;99.90
2012;DHT22;1009;51.436;6.972;2023-02-01T01:06:56;6.20;99.90
2012;DHT22;1009;51.436;6.972;2023-02-01T01:09:23;6.20;99.90
2012;DHT22;1009;51.436;6.972;2023-02-01T01:11:49;6.20;99.90
2012;DHT22;1009;51.436;6.972;2023-02-01T01:14:18;6.30;99.90
2012;DHT22;1009;51.436;6.972;2023-02-01T01:16:44;6.40;99.90
2012;DHT22;1009;51.436;6.972;2023-02-01T01:19:11;6.30;99.90
2012;DHT22;1009;51.436;6.972;2023-02-01T01:21:38;6.30;99.90
2012;DHT22;1009;51.436;6.972;2023-02-01T01:24:06;6.30;99.90
2012;DHT22;1009;51.436;6.972;2023-02-01T01:26:33;6.30;99.90
2012;DHT22;1009;51.436;6.972;2023-02-01T01:28:59;6.40;99.90
2012;DHT22;1009;51.436;6.972;2023-02-01T01:31:28;6.40;99.90
2012;DHT22;1009;51.436;6.972;2023-02-01T01:33:57;6.40;99.90
2012;DHT22;1009;51.436;6.972;2023-02-01T01:36:24;6.40;99.90
2012;DHT22;1009;51.436;6.972;2023-02-01T01:38:51;6.40;99.90
2012;DHT22;1009;51.436;6.972;2023-02-01T01:41:21;6.30;99.90
2012;DHT22;1009;51.436;6.972;2023-02-01T01:43:54;6.30;99.90
2012;DHT22;1009;51.436;6.972;2023-02-01T01:46:22;6.30;99.90
2012;DHT22;1009;51.436;6.972;2023-02-01T01:48:53;6.30;99.90
2012;DHT22;1009;51.436;6.972;2023-02-01T01:51:21;6.40;99.90
2012;DHT22;1009;51.436;6.972;2023-02-01T01:53:55;6.30;99.90
2012;DHT22;1009;51.436;6.972;2023-02-01T01:56:28;6.30;99.90
2012;DHT22;1009;51.436;6.972;2023-02-01T01:58:56;6.30;99.90
2012;DHT22;1009;51.436;6.972;2023-02-01T02:01:23;6.30;99.90
2012;DHT22;1009;51.436;6.972;2023-02-01T02:03:51;6.30;99.90
2012;DHT22;1009;51.436;6.972;2023-02-01T02:06:27;6.30;99.90
2012;DHT22;1009;51.436;6.972;2023-02-01T02:09:05;6.30;99.90
2012;DHT22;1009;51.436;6.972;2023-02-01T02:11:34;6.20;99.90
2012;DHT22;1009;51.436;6.972;2023-02-01T02:14:01;6.20;99.90
2012;DHT22;1009;51.436;6.972;2023-02-01T02:22:42;6.10;99.90
2012;DHT22;1009;51.436;6.972;2023-02-01T02:28:38;6.10;99.90
2012;DHT22;1009;51.436;6.972;2023-02-01T02:31:30;6.10;99.90
2012;DHT22;1009;51.436;6.972;2023-02-01T02:34:13;6.00;99.90
2012;DHT22;1009;51.436;6.972;2023-02-01T02:36:48;6.00;99.90
2012;DHT22;1009;51.436;6.972;2023-02-01T02:39:23;6.00;99.90
2012;DHT22;1009;51.436;6.972;2023-02-01T02:41:59;6.00;99.90
2012;DHT22;1009;51.436;6.972;2023-02-01T02:44:48;6.10;99.90
2012;DHT22;1009;51.436;6.972;2023-02-01T02:47:42;6.00;99.90
2012;DHT22;1009;51.436;6.972;2023-02-01T02:50:18;6.00;99.90
2012;DHT22;1009;51.436;6.972;2023-02-01T02:53:09;6.00;99.90
2012;DHT22;1009;51.436;6.972;2023-02-01T02:55:55;5.90;99.90
2012;DHT22;1009;51.436;6.972;2023-02-01T02:58:41;5.90;99.90
2012;DHT22;1009;51.436;6.972;2023-02-01T03:01:27;5.90;99.90
2012;DHT22;1009;51.436;6.972;2023-02-01T03:04:12;5.80;99.90
2012;DHT22;1009;51.436;6.972;2023-02-01T03:06:44;5.80;99.90
2012;DHT22;1009;51.436;6.972;2023-02-01T03:09:16;5.80;99.90
2012;DHT22;1009;51.436;6.972;2023-02-01T03:11:47;5.70;99.90
2012;DHT22;1009;51.436;6.972;2023-02-01T03:14:34;5.60;99.90
2012;DHT22;1009;51.436;6.972;2023-02-01T03:17:07;5.70;99.90
2012;DHT22;1009;51.436;6.972;2023-02-01T03:19:37;5.60;99.90
2012;DHT22;1009;51.436;6.972;2023-02-01T03:22:13;5.70;99.90
2012;DHT22;1009;51.436;6.972;2023-02-01T03:24:43;5.70;99.90
2012;DHT22;1009;51.436;6.972;2023-02-01T03:27:14;5.70;99.90
2012;DHT22;1009;51.436;6.972;2023-02-01T03:29:47;5.70;99.90
2012;DHT22;1009;51.436;6.972;2023-02-01T03:32:16;5.70;99.90
2012;DHT22;1009;51.436;6.972;2023-02-01T03:34:44;5.70;99.90
2012;DHT22;1009;51.436;6.972;2023-02-01T03:37:15;5.70;99.90
2012;DHT22;1009;51.436;6.972;2023-02-01T03:39:46;5.80;99.90
2012;DHT22;1009;51.436;6.972;2023-02-01T03:42:17;5.80;99.90
2012;DHT22;1009;51.436;6.972;2023-02-01T03:44:50;5.80;99.90
2012;DHT22;1009;51.436;6.972;2023-02-01T03:47:21;5.90;99.90
2012;DHT22;1009;51.436;6.972;2023-02-01T03:49:51;5.80;99.90
2012;DHT22;1009;51.436;6.972;2023-02-01T03:52:22;5.80;99.90
2012;DHT22;1009;51.436;6.972;2023-02-01T03:54:50;5.80;99.90
2012;DHT22;1009;51.436;6.972;2023-02-01T03:57:21;5.90;99.90
2012;DHT22;1009;51.436;6.972;2023-02-01T03:59:50;5.90;99.90
2012;DHT22;1009;51.436;6.972;2023-02-01T04:02:16;5.90;99.90
2012;DHT22;1009;51.436;6.972;2023-02-01T04:04:43;5.90;99.90
2012;DHT22;1009;51.436;6.972;2023-02-01T04:07:11;5.90;99.90
2012;DHT22;1009;51.436;6.972;2023-02-01T04:09:39;5.90;99.90
2012;DHT22;1009;51.436;6.972;2023-02-01T04:12:06;5.90;99.90
2012;DHT22;1009;51.436;6.972;2023-02-01T04:14:33;5.90;99.90
2012;DHT22;1009;51.436;6.972;2023-02-01T04:17:02;5.80;99.90
2012;DHT22;1009;51.436;6.972;2023-02-01T04:19:29;5.80;99.90
2012;DHT22;1009;51.436;6.972;2023-02-01T04:21:55;5.80;99.90
2012;DHT22;1009;51.436;6.972;2023-02-01T04:24:22;5.80;99.90
2012;DHT22;1009;51.436;6.972;2023-02-01T04:26:50;5.80;99.90
2012;DHT22;1009;51.436;6.972;2023-02-01T04:29:17;5.80;99.90
2012;DHT22;1009;51.436;6.972;2023-02-01T04:31:43;5.80;99.90
2012;DHT22;1009;51.436;6.972;2023-02-01T04:34:11;5.80;99.90
2012;DHT22;1009;51.436;6.972;2023-02-01T04:36:38;5.80;99.90
2012;DHT22;1009;51.436;6.972;2023-02-01T04:39:04;5.70;99.90
2012;DHT22;1009;51.436;6.972;2023-02-01T04:41:31;5.80;99.90
2012;DHT22;1009;51.436;6.972;2023-02-01T04:43:59;5.70;99.90
2012;DHT22;1009;51.436;6.972;2023-02-01T04:46:32;5.80;99.90
2012;DHT22;1009;51.436;6.972;2023-02-01T04:48:58;5.70;99.90
2012;DHT22;1009;51.436;6.972;2023-02-01T04:51:25;5.80;99.90
2012;DHT22;1009;51.436;6.972;2023-02-01T04:54:00;5.80;99.90
2012;DHT22;1009;51.436;6.972;2023-02-01T04:56:27;5.70;99.90
2012;DHT22;1009;51.436;6.972;2023-02-01T04:58:54;5.70;99.90
2012;DHT22;1009;51.436;6.972;2023-02-01T05:01:23;5.70;99.90
2012;DHT22;1009;51.436;6.972;2023-02-01T05:03:50;5.70;99.90
2012;DHT22;1009;51.436;6.972;2023-02-01T05:06:17;5.70;99.90
2012;DHT22;1009;51.436;6.972;2023-02-01T05:08:44;5.60;99.90
2012;DHT22;1009;51.436;6.972;2023-02-01T05:11:10;5.60;99.90
2012;DHT22;1009;51.436;6.972;2023-02-01T05:13:57;5.70;99.90
2012;DHT22;1009;51.436;6.972;2023-02-01T05:16:25;5.70;99.90
2012;DHT22;1009;51.436;6.972;2023-02-01T05:18:53;5.70;99.90
2012;DHT22;1009;51.436;6.972;2023-02-01T05:21:20;5.70;99.90
2012;DHT22;1009;51.436;6.972;2023-02-01T05:23:49;5.70;99.90
2012;DHT22;1009;51.436;6.972;2023-02-01T05:26:33;5.70;99.90
2012;DHT22;1009;51.436;6.972;2023-02-01T05:29:00;5.70;99.90
2012;DHT22;1009;51.436;6.972;2023-02-01T05:31:28;5.70;99.90
2012;DHT22;1009;51.436;6.972;2023-02-01T05:33:55;5.60;99.90
2012;DHT22;1009;51.436;6.972;2023-02-01T05:36:22;5.70;99.90
2012;DHT22;1009;51.436;6.972;2023-02-01T05:38:48;5.60;99.90
2012;DHT22;1009;51.436;6.972;2023-02-01T05:41:15;5.60;99.90
2012;DHT22;1009;51.436;6.972;2023-02-01T05:43:42;5.60;99.90
2012;DHT22;1009;51.436;6.972;2023-02-01T05:46:09;5.60;99.90
2012;DHT22;1009;51.436;6.972;2023-02-01T05:48:39;5.60;99.90
2012;DHT22;1009;51.436;6.972;2023-02-01T05:51:06;5.50;99.90
2012;DHT22;1009;51.436;6.972;2023-02-01T05:53:33;5.50;99.90
2012;DHT22;1009;51.436;6.972;2023-02-01T05:56:06;5.50;99.90
2012;DHT22;1009;51.436;6.972;2023-02-01T05:58:32;5.50;99.90
2012;DHT22;1009;51.436;6.972;2023-02-01T06:01:03;5.50;99.90
2012;DHT22;1009;51.436;6.972;2023-02-01T06:03:33;5.50;99.90
2012;DHT22;1009;51.436;6.972;2023-02-01T06:06:01;5.50;99.90
2012;DHT22;1009;51.436;6.972;2023-02-01T06:08:28;5.40;99.90
2012;DHT22;1009;51.436;6.972;2023-02-01T06:10:58;5.40;99.90
2012;DHT22;1009;51.436;6.972;2023-02-01T06:13:25;5.50;99.90
2012;DHT22;1009;51.436;6.972;2023-02-01T06:15:51;5.50;99.90
2012;DHT22;1009;51.436;6.972;2023-02-01T06:18:18;5.50;99.90
2012;DHT22;1009;51.436;6.972;2023-02-01T06:20:51;5.50;99.90
2012;DHT22;1009;51.436;6.972;2023-02-01T06:23:22;5.50;99.90
2012;DHT22;1009;51.436;6.972;2023-02-01T06:25:50;5.60;99.90
2012;DHT22;1009;51.436;6.972;2023-02-01T06:28:17;5.60;99.90
2012;DHT22;1009;51.436;6.972;2023-02-01T06:30:44;5.60;99.90
2012;DHT22;1009;51.436;6.972;2023-02-01T06:33:11;5.60;99.90
2012;DHT22;1009;51.436;6.972;2023-02-01T06:35:40;5.60;99.90
2012;DHT22;1009;51.436;6.972;2023-02-01T06:38:08;5.60;99.90
2012;DHT22;1009;51.436;6.972;2023-02-01T06:40:36;5.50;99.90
2012;DHT22;1009;51.436;6.972;2023-02-01T06:43:02;5.50;99.90
2012;DHT22;1009;51.436;6.972;2023-02-01T06:45:30;5.60;99.90
2012;DHT22;1009;51.436;6.972;2023-02-01T06:47:58;5.60;99.90
2012;DHT22;1009;51.436;6.972;2023-02-01T06:50:27;5.70;99.90
2012;DHT22;1009;51.436;6.972;2023-02-01T06:52:55;5.60;99.90
2012;DHT22;1009;51.436;6.972;2023-02-01T06:55:21;5.70;99.90
2012;DHT22;1009;51.436;6.972;2023-02-01T06:57:53;5.70;99.90
2012;DHT22;1009;51.436;6.972;2023-02-01T07:00:20;5.70;99.90
2012;DHT22;1009;51.436;6.972;2023-02-01T07:02:47;5.70;99.90
2012;DHT22;1009;51.436;6.972;2023-02-01T07:05:14;5.70;99.90
2012;DHT22;1009;51.436;6.972;2023-02-01T07:07:41;5.80;99.90
2012;DHT22;1009;51.436;6.972;2023-02-01T07:10:08;5.80;99.90
2012;DHT22;1009;51.436;6.972;2023-02-01T07:12:35;5.80;99.90
2012;DHT22;1009;51.436;6.972;2023-02-01T07:15:05;5.80;99.90
2012;DHT22;1009;51.436;6.972;2023-02-01T07:17:31;5.80;99.90
2012;DHT22;1009;51.436;6.972;2023-02-01T07:19:58;5.80;99.90
2012;DHT22;1009;51.436;6.972;2023-02-01T07:22:26;5.80;99.90
2012;DHT22;1009;51.436;6.972;2023-02-01T07:24:53;5.80;99.90
2012;DHT22;1009;51.436;6.972;2023-02-01T07:27:20;5.80;99.90
2012;DHT22;1009;51.436;6.972;2023-02-01T07:29:50;5.90;99.90
2012;DHT22;1009;51.436;6.972;2023-02-01T07:32:21;5.90;99.90
2012;DHT22;1009;51.436;6.972;2023-02-01T07:34:47;5.90;99.90
2012;DHT22;1009;51.436;6.972;2023-02-01T07:37:14;6.00;99.90
2012;DHT22;1009;51.436;6.972;2023-02-01T07:39:41;6.00;99.90
2012;DHT22;1009;51.436;6.972;2023-02-01T07:42:07;6.00;99.90
2012;DHT22;1009;51.436;6.972;2023-02-01T07:44:34;6.00;99.90
2012;DHT22;1009;51.436;6.972;2023-02-01T07:47:01;6.10;99.90
2012;DHT22;1009;51.436;6.972;2023-02-01T07:49:29;6.00;99.90
2012;DHT22;1009;51.436;6.972;2023-02-01T07:51:56;6.00;99.90
2012;DHT22;1009;51.436;6.972;2023-02-01T07:54:23;6.00;99.90
2012;DHT22;1009;51.436;6.972;2023-02-01T07:56:50;6.00;99.90
2012;DHT22;1009;51.436;6.972;2023-02-01T07:59:16;6.00;99.90
2012;DHT22;1009;51.436;6.972;2023-02-01T08:01:43;6.00;99.90
2012;DHT22;1009;51.436;6.972;2023-02-01T08:04:11;6.00;99.90
2012;DHT22;1009;51.436;6.972;2023-02-01T08:06:41;6.00;99.90
2012;DHT22;1009;51.436;6.972;2023-02-01T08:09:07;6.00;99.90
2012;DHT22;1009;51.436;6.972;2023-02-01T08:11:35;6.00;99.90
2012;DHT22;1009;51.436;6.972;2023-02-01T08:14:03;6.10;99.90
2012;DHT22;1009;51.436;6.972;2023-02-01T08:16:30;6.00;99.90
2012;DHT22;1009;51.436;6.972;2023-02-01T08:18:58;6.00;99.90
2012;DHT22;1009;51.436;6.972;2023-02-01T08:21:27;6.00;99.90
2012;DHT22;1009;51.436;6.972;2023-02-01T08:24:03;6.10;99.90
2012;DHT22;1009;51.436;6.972;2023-02-01T08:26:30;6.10;99.90
2012;DHT22;1009;51.436;6.972;2023-02-01T08:28:59;6.10;99.90
2012;DHT22;1009;51.436;6.972;2023-02-01T08:31:27;6.10;99.90
2012;DHT22;1009;51.436;6.972;2023-02-01T08:33:56;6.00;99.90
2012;DHT22;1009;51.436;6.972;2023-02-01T08:36:24;6.00;99.90
2012;DHT22;1009;51.436;6.972;2023-02-01T08:38:51;6.10;99.90
2012;DHT22;1009;51.436;6.972;2023-02-01T08:41:21;6.10;99.90
2012;DHT22;1009;51.436;6.972;2023-02-01T08:43:48;6.10;99.90
2012;DHT22;1009;51.436;6.972;2023-02-01T08:46:14;6.10;99.90
2012;DHT22;1009;51.436;6.972;2023-02-01T08:48:41;6.10;99.90
2012;DHT22;1009;51.436;6.972;2023-02-01T08:51:10;6.10;99.90
2012;DHT22;1009;51.436;6.972;2023-02-01T08:53:38;6.20;99.90
2012;DHT22;1009;51.436;6.972;2023-02-01T08:56:07;6.20;99.90
2012;DHT22;1009;51.436;6.972;2023-02-01T08:58:35;6.20;99.90
2012;DHT22;1009;51.436;6.972;2023-02-01T09:01:03;6.20;99.90
2012;DHT22;1009;51.436;6.972;2023-02-01T09:03:30;6.20;99.90
2012;DHT22;1009;51.436;6.972;2023-02-01T09:06:00;6.30;99.90
2012;DHT22;1009;51.436;6.972;2023-02-01T09:08:26;6.20;99.90
2012;DHT22;1009;51.436;6.972;2023-02-01T09:10:53;6.20;99.90
2012;DHT22;1009;51.436;6.972;2023-02-01T09:13:24;6.20;99.90
2012;DHT22;1009;51.436;6.972;2023-02-01T09:15:52;6.20;99.90
2012;DHT22;1009;51.436;6.972;2023-02-01T09:18:19;6.20;99.90
2012;DHT22;1009;51.436;6.972;2023-02-01T09:20:45;6.20;99.90
2012;DHT22;1009;51.436;6.972;2023-02-01T09:23:12;6.10;99.90
2012;DHT22;1009;51.436;6.972;2023-02-01T09:25:39;6.20;99.90
2012;DHT22;1009;51.436;6.972;2023-02-01T09:28:06;6.30;99.90
2012;DHT22;1009;51.436;6.972;2023-02-01T09:30:34;6.30;99.90
2012;DHT22;1009;51.436;6.972;2023-02-01T09:33:03;6.20;99.90
2012;DHT22;1009;51.436;6.972;2023-02-01T09:35:30;6.20;99.90
2012;DHT22;1009;51.436;6.972;2023-02-01T09:37:57;6.30;99.90
2012;DHT22;1009;51.436;6.972;2023-02-01T09:40:24;6.30;99.90
2012;DHT22;1009;51.436;6.972;2023-02-01T09:43:06;6.30;99.90
2012;DHT22;1009;51.436;6.972;2023-02-01T09:45:40;6.30;99.90
2012;DHT22;1009;51.436;6.972;2023-02-01T09:48:15;6.40;99.90
2012;DHT22;1009;51.436;6.972;2023-02-01T09:50:47;6.30;99.90
2012;DHT22;1009;51.436;6.972;2023-02-01T09:53:19;6.30;99.90
2012;DHT22;1009;51.436;6.972;2023-02-01T09:55:49;6.30;99.90
2012;DHT22;1009;51.436;6.972;2023-02-01T09:58:21;6.30;99.90
2012;DHT22;1009;51.436;6.972;2023-02-01T10:00:52;6.30;99.90
2012;DHT22;1009;51.436;6.972;2023-02-01T10:03:23;6.40;99.90
2012;DHT22;1009;51.436;6.972;2023-02-01T10:06:18;6.40;99.90
2012;DHT22;1009;51.436;6.972;2023-02-01T10:09:20;6.50;99.90
2012;DHT22;1009;51.436;6.972;2023-02-01T10:12:00;6.50;99.90
2012;DHT22;1009;51.436;6.972;2023-02-01T10:14:41;6.40;99.90
2012;DHT22;1009;51.436;6.972;2023-02-01T10:17:19;6.30;99.90
2012;DHT22;1009;51.436;6.972;2023-02-01T10:19:58;6.40;99.90
2012;DHT22;1009;51.436;6.972;2023-02-01T10:22:37;6.40;99.90
2012;DHT22;1009;51.436;6.972;2023-02-01T10:25:10;6.50;99.90
2012;DHT22;1009;51.436;6.972;2023-02-01T10:27:39;6.60;99.90
2012;DHT22;1009;51.436;6.972;2023-02-01T10:30:16;6.60;99.90
2012;DHT22;1009;51.436;6.972;2023-02-01T10:32:44;6.60;99.90
2012;DHT22;1009;51.436;6.972;2023-02-01T10:35:14;6.70;99.90
2012;DHT22;1009;51.436;6.972;2023-02-01T10:37:43;6.70;99.90
2012;DHT22;1009;51.436;6.972;2023-02-01T10:40:16;6.70;99.90
2012;DHT22;1009;51.436;6.972;2023-02-01T10:42:45;6.70;99.90
2012;DHT22;1009;51.436;6.972;2023-02-01T10:45:14;6.70;99.90
2012;DHT22;1009;51.436;6.972;2023-02-01T10:47:43;6.70;99.90
2012;DHT22;1009;51.436;6.972;2023-02-01T10:50:18;6.70;99.90
2012;DHT22;1009;51.436;6.972;2023-02-01T10:52:49;6.70;99.90
2012;DHT22;1009;51.436;6.972;2023-02-01T10:55:38;6.70;99.90
2012;DHT22;1009;51.436;6.972;2023-02-01T10:58:07;6.80;99.90
2012;DHT22;1009;51.436;6.972;2023-02-01T11:00:47;6.80;99.90
2012;DHT22;1009;51.436;6.972;2023-02-01T11:03:41;6.80;99.90
2012;DHT22;1009;51.436;6.972;2023-02-01T11:06:19;6.90;99.90
2012;DHT22;1009;51.436;6.972;2023-02-01T11:08:49;6.90;99.90
2012;DHT22;1009;51.436;6.972;2023-02-01T11:11:17;6.90;99.90
2012;DHT22;1009;51.436;6.972;2023-02-01T11:13:44;6.90;99.90
2012;DHT22;1009;51.436;6.972;2023-02-01T11:16:14;6.90;99.90
2012;DHT22;1009;51.436;6.972;2023-02-01T11:18:41;6.90;99.90
2012;DHT22;1009;51.436;6.972;2023-02-01T11:21:10;6.90;99.90
2012;DHT22;1009;51.436;6.972;2023-02-01T11:23:43;6.90;99.90
2012;DHT22;1009;51.436;6.972;2023-02-01T11:26:13;7.00;99.90
2012;DHT22;1009;51.436;6.972;2023-02-01T11:28:50;7.00;99.90
2012;DHT22;1009;51.436;6.972;2023-02-01T11:31:18;6.90;99.90
2012;DHT22;1009;51.436;6.972;2023-02-01T11:33:50;6.80;99.90
2012;DHT22;1009;51.436;6.972;2023-02-01T11:36:21;6.80;99.90
2012;DHT22;1009;51.436;6.972;2023-02-01T11:38:54;6.90;99.90
2012;DHT22;1009;51.436;6.972;2023-02-01T11:41:34;7.00;99.90
2012;DHT22;1009;51.436;6.972;2023-02-01T11:44:05;7.00;99.90
2012;DHT22;1009;51.436;6.972;2023-02-01T11:46:42;7.00;99.90
2012;DHT22;1009;51.436;6.972;2023-02-01T11:49:20;7.00;99.90
2012;DHT22;1009;51.436;6.972;2023-02-01T11:51:54;6.90;99.90
2012;DHT22;1009;51.436;6.972;2023-02-01T11:54:33;7.00;99.90
2012;DHT22;1009;51.436;6.972;2023-02-01T11:57:18;6.80;99.90
2012;DHT22;1009;51.436;6.972;2023-02-01T12:00:02;6.70;99.90
2012;DHT22;1009;51.436;6.972;2023-02-01T12:02:48;6.70;99.90
2012;DHT22;1009;51.436;6.972;2023-02-01T12:05:28;6.60;99.90
2012;DHT22;1009;51.436;6.972;2023-02-01T12:08:17;6.60;99.90
2012;DHT22;1009;51.436;6.972;2023-02-01T12:11:00;6.60;99.90
2012;DHT22;1009;51.436;6.972;2023-02-01T12:13:42;6.60;99.90
2012;DHT22;1009;51.436;6.972;2023-02-01T12:16:20;6.60;99.90
2012;DHT22;1009;51.436;6.972;2023-02-01T12:18:58;6.60;99.90
2012;DHT22;1009;51.436;6.972;2023-02-01T12:21:41;6.70;99.90
2012;DHT22;1009;51.436;6.972;2023-02-01T12:24:27;6.60;99.90
2012;DHT22;1009;51.436;6.972;2023-02-01T12:27:08;6.70;99.90
2012;DHT22;1009;51.436;6.972;2023-02-01T12:29:52;6.70;99.90
2012;DHT22;1009;51.436;6.972;2023-02-01T12:32:44;6.80;99.90
2012;DHT22;1009;51.436;6.972;2023-02-01T12:35:28;6.90;99.90
2012;DHT22;1009;51.436;6.972;2023-02-01T12:38:15;6.90;99.90
2012;DHT22;1009;51.436;6.972;2023-02-01T12:40:51;6.90;99.90
2012;DHT22;1009;51.436;6.972;2023-02-01T12:43:28;7.00;99.90
2012;DHT22;1009;51.436;6.972;2023-02-01T12:46:04;7.00;99.90
2012;DHT22;1009;51.436;6.972;2023-02-01T12:48:36;7.00;99.90
2012;DHT22;1009;51.436;6.972;2023-02-01T12:51:08;7.10;99.90
2012;DHT22;1009;51.436;6.972;2023-02-01T12:53:44;7.10;99.90
2012;DHT22;1009;51.436;6.972;2023-02-01T12:56:16;7.10;99.90
2012;DHT22;1009;51.436;6.972;2023-02-01T12:58:49;7.20;99.90
2012;DHT22;1009;51.436;6.972;2023-02-01T13:01:21;7.20;99.90
2012;DHT22;1009;51.436;6.972;2023-02-01T13:03:59;7.20;99.90
2012;DHT22;1009;51.436;6.972;2023-02-01T13:06:34;7.20;99.90
2012;DHT22;1009;51.436;6.972;2023-02-01T13:09:09;7.20;99.90
2012;DHT22;1009;51.436;6.972;2023-02-01T13:11:40;7.10;99.90
2012;DHT22;1009;51.436;6.972;2023-02-01T13:14:19;7.10;99.90
2012;DHT22;1009;51.436;6.972;2023-02-01T13:16:51;7.10;99.90
2012;DHT22;1009;51.436;6.972;2023-02-01T13:19:22;7.00;99.90
2012;DHT22;1009;51.436;6.972;2023-02-01T13:21:55;7.00;99.90
2012;DHT22;1009;51.436;6.972;2023-02-01T13:24:33;7.00;99.90
2012;DHT22;1009;51.436;6.972;2023-02-01T13:27:02;7.00;99.90
2012;DHT22;1009;51.436;6.972;2023-02-01T13:29:32;7.10;99.90
2012;DHT22;1009;51.436;6.972;2023-02-01T13:35:18;7.10;99.90
2012;DHT22;1009;51.436;6.972;2023-02-01T13:38:05;7.20;99.90
2012;DHT22;1009;51.436;6.972;2023-02-01T13:40:40;7.20;99.90
2012;DHT22;1009;51.436;6.972;2023-02-01T13:43:12;7.30;99.90
2012;DHT22;1009;51.436;6.972;2023-02-01T13:45:46;7.30;99.90
2012;DHT22;1009;51.436;6.972;2023-02-01T13:48:21;7.30;99.90
2012;DHT22;1009;51.436;6.972;2023-02-01T13:50:52;7.40;99.90
2012;DHT22;1009;51.436;6.972;2023-02-01T13:53:25;7.40;99.90
2012;DHT22;1009;51.436;6.972;2023-02-01T13:55:57;7.50;99.90
2012;DHT22;1009;51.436;6.972;2023-02-01T13:58:31;7.50;99.90
2012;DHT22;1009;51.436;6.972;2023-02-01T14:01:33;7.50;99.90
2012;DHT22;1009;51.436;6.972;2023-02-01T14:04:03;7.50;99.90
2012;DHT22;1009;51.436;6.972;2023-02-01T14:06:42;7.50;99.90
2012;DHT22;1009;51.436;6.972;2023-02-01T14:09:19;7.50;99.90
2012;DHT22;1009;51.436;6.972;2023-02-01T14:11:48;7.60;99.90
2012;DHT22;1009;51.436;6.972;2023-02-01T14:14:47;7.50;99.90
2012;DHT22;1009;51.436;6.972;2023-02-01T14:17:33;7.60;99.90
2012;DHT22;1009;51.436;6.972;2023-02-01T14:23:29;7.60;99.90
2012;DHT22;1009;51.436;6.972;2023-02-01T14:26:13;7.60;99.90
2012;DHT22;1009;51.436;6.972;2023-02-01T14:28:44;7.60;99.90
2012;DHT22;1009;51.436;6.972;2023-02-01T14:31:30;7.60;99.90
2012;DHT22;1009;51.436;6.972;2023-02-01T14:34:02;7.60;99.90
2012;DHT22;1009;51.436;6.972;2023-02-01T14:36:41;7.70;99.90
2012;DHT22;1009;51.436;6.972;2023-02-01T14:39:20;7.70;99.90
2012;DHT22;1009;51.436;6.972;2023-02-01T14:41:53;7.70;99.90
2012;DHT22;1009;51.436;6.972;2023-02-01T14:44:30;7.70;99.90
2012;DHT22;1009;51.436;6.972;2023-02-01T14:47:28;7.80;99.90
2012;DHT22;1009;51.436;6.972;2023-02-01T14:52:46;7.80;99.90
2012;DHT22;1009;51.436;6.972;2023-02-01T14:55:16;7.80;99.90
2012;DHT22;1009;51.436;6.972;2023-02-01T14:57:46;7.80;99.90
2012;DHT22;1009;51.436;6.972;2023-02-01T15:00:19;7.80;99.90
2012;DHT22;1009;51.436;6.972;2023-02-01T15:02:48;7.90;99.90
2012;DHT22;1009;51.436;6.972;2023-02-01T15:05:35;7.80;99.90
2012;DHT22;1009;51.436;6.972;2023-02-01T15:08:14;7.80;99.90
2012;DHT22;1009;51.436;6.972;2023-02-01T15:10:50;7.80;99.90
2012;DHT22;1009;51.436;6.972;2023-02-01T15:13:20;7.80;99.90
2012;DHT22;1009;51.436;6.972;2023-02-01T15:16:02;7.70;99.90
2012;DHT22;1009;51.436;6.972;2023-02-01T15:18:29;7.70;99.90
2012;DHT22;1009;51.436;6.972;2023-02-01T15:21:02;7.70;99.90
2012;DHT22;1009;51.436;6.972;2023-02-01T15:23:29;7.70;99.90
2012;DHT22;1009;51.436;6.972;2023-02-01T15:25:59;7.70;99.90
2012;DHT22;1009;51.436;6.972;2023-02-01T15:28:29;7.80;99.90
2012;DHT22;1009;51.436;6.972;2023-02-01T15:31:00;7.80;99.90
2012;DHT22;1009;51.436;6.972;2023-02-01T15:33:29;7.80;99.90
2012;DHT22;1009;51.436;6.972;2023-02-01T15:36:09;7.90;99.90
2012;DHT22;1009;51.436;6.972;2023-02-01T15:38:39;7.90;99.90
2012;DHT22;1009;51.436;6.972;2023-02-01T15:41:09;7.90;99.90
2012;DHT22;1009;51.436;6.972;2023-02-01T15:43:40;7.90;99.90
2012;DHT22;1009;51.436;6.972;2023-02-01T15:46:10;7.90;99.90
2012;DHT22;1009;51.436;6.972;2023-02-01T15:48:41;7.90;99.90
2012;DHT22;1009;51.436;6.972;2023-02-01T15:51:19;7.90;99.90
2012;DHT22;1009;51.436;6.972;2023-02-01T15:53:50;7.90;99.90
2012;DHT22;1009;51.436;6.972;2023-02-01T15:56:23;7.90;99.90
2012;DHT22;1009;51.436;6.972;2023-02-01T15:58:53;7.90;99.90
2012;DHT22;1009;51.436;6.972;2023-02-01T16:01:22;8.00;99.90
2012;DHT22;1009;51.436;6.972;2023-02-01T16:03:49;8.00;99.90
2012;DHT22;1009;51.436;6.972;2023-02-01T16:06:31;8.00;99.90
2012;DHT22;1009;51.436;6.972;2023-02-01T16:09:10;8.00;99.90
2012;DHT22;1009;51.436;6.972;2023-02-01T16:11:48;7.90;99.90
2012;DHT22;1009;51.436;6.972;2023-02-01T16:14:18;7.90;99.90
2012;DHT22;1009;51.436;6.972;2023-02-01T16:16:45;7.90;99.90
2012;DHT22;1009;51.436;6.972;2023-02-01T16:19:12;7.90;99.90
2012;DHT22;1009;51.436;6.972;2023-02-01T16:21:40;7.90;99.90
2012;DHT22;1009;51.436;6.972;2023-02-01T16:24:07;7.90;99.90
2012;DHT22;1009;51.436;6.972;2023-02-01T16:26:34;7.90;99.90
2012;DHT22;1009;51.436;6.972;2023-02-01T16:29:01;7.80;99.90
2012;DHT22;1009;51.436;6.972;2023-02-01T16:31:33;7.80;99.90
2012;DHT22;1009;51.436;6.972;2023-02-01T16:34:01;7.50;99.90
2012;DHT22;1009;51.436;6.972;2023-02-01T16:36:28;7.40;99.90
2012;DHT22;1009;51.436;6.972;2023-02-01T16:38:56;7.20;99.90
2012;DHT22;1009;51.436;6.972;2023-02-01T16:41:24;7.10;99.90
2012;DHT22;1009;51.436;6.972;2023-02-01T16:43:54;7.10;99.90
2012;DHT22;1009;51.436;6.972;2023-02-01T16:46:23;7.00;99.90
2012;DHT22;1009;51.436;6.972;2023-02-01T16:48:53;7.00;99.90
2012;DHT22;1009;51.436;6.972;2023-02-01T16:51:20;7.10;99.90
2012;DHT22;1009;51.436;6.972;2023-02-01T16:53:47;7.20;99.90
2012;DHT22;1009;51.436;6.972;2023-02-01T16:56:17;7.20;99.90
2012;DHT22;1009;51.436;6.972;2023-02-01T16:58:45;7.20;99.90
2012;DHT22;1009;51.436;6.972;2023-02-01T17:01:13;7.30;99.90
2012;DHT22;1009;51.436;6.972;2023-02-01T17:03:41;7.40;99.90